Cabernet Sky — WDH7244 — position and weather

sailwx.info

Track history (hours):
 
Tides and Currents Weather Stations Pressure Air Temp Water Temp Dewpoint Dewpoint Depression Visibility Wind Speed Wind Dir Waves Ship Positions

Cabernet Sky

Owner: Buckner, Charles A, Dana Point, CA. More information available from US FCC via Universal Licensing System and Coast Guard Vessel Documentation Center.

Last reported at 2017-Dec-11 17:54 UTC. Time now 2017-Dec-17 17:48 UTC.
Position N 33°30' W 117°48'.

Length 16 m.

Type: Sailing vessel. MMSI: 367646260.

Date/timePositionNaut miles runAvg speedWind from/ knotsBaromVisibWave heightAir tempDewpointWater temp
2017-Dec-11 17:54N 33°30' W 117°48'2 5.7
2017-Dec-11 17:30N 33°29' W 117°46'3 5.6
2017-Dec-11 16:58N 33°27' W 117°43'1 2.0
2017-Dec-11 16:30N 33°28' W 117°42'0 0.3
2017-Dec-11 15:59N 33°28' W 117°42'0 0.0
2017-Dec-11 15:29N 33°28' W 117°42'0 0.0
2017-Dec-11 14:59N 33°28' W 117°42'0 0.0
2017-Dec-11 14:17N 33°28' W 117°42'0 0.0
2017-Dec-11 13:59N 33°28' W 117°42'0 0.0
2017-Dec-11 13:29N 33°28' W 117°42'0 0.0
2017-Dec-11 12:59N 33°28' W 117°42'0 0.0
2017-Dec-11 12:17N 33°28' W 117°42'0 0.0
2017-Dec-11 11:59N 33°28' W 117°42'0 0.0
2017-Dec-11 05:23N 33°28' W 117°42'0 0.0
2017-Dec-11 04:59N 33°28' W 117°42'0 0.0
2017-Dec-11 04:29N 33°28' W 117°42'0 0.0
2017-Dec-11 03:59N 33°28' W 117°42'0 0.0
2017-Dec-11 03:29N 33°28' W 117°42'0 0.0
2017-Dec-11 02:59N 33°28' W 117°42'0 0.0
2017-Dec-11 02:29N 33°28' W 117°42'0 0.0
2017-Dec-11 01:47N 33°28' W 117°42'0 0.0
2017-Dec-11 01:29N 33°28' W 117°42'0 0.0
2017-Dec-11 00:59N 33°28' W 117°42'0 0.0
2017-Dec-11 00:29N 33°28' W 117°42'0 0.0
2017-Dec-10 23:35N 33°28' W 117°42'0 0.0
2017-Dec-10 23:17N 33°28' W 117°42'0 0.0
2017-Dec-10 22:59N 33°28' W 117°42'1 2.1
2017-Dec-10 22:30N 33°27' W 117°41'2 3.8
2017-Dec-10 22:00N 33°25' W 117°41'2 0.1
2017-Dec-09 23:54N 33°27' W 117°41'4 1.2
2017-Dec-09 20:33N 33°23' W 117°43'0 3.9
2017-Dec-09 20:30N 33°23' W 117°43'3 5.2
2017-Dec-09 20:00N 33°25' W 117°41'2 4.4
2017-Dec-09 19:28N 33°27' W 117°42'0 0.4
2017-Dec-09 18:58N 33°28' W 117°42'0 0.0
2017-Dec-09 18:28N 33°28' W 117°42'0 0.0
2017-Dec-09 17:58N 33°28' W 117°42'0 0.0
2017-Dec-09 17:28N 33°28' W 117°42'0 0.0
2017-Dec-09 16:58N 33°28' W 117°42'0 0.0
2017-Dec-09 16:28N 33°28' W 117°42'0 0.0
2017-Dec-09 15:58N 33°28' W 117°42'0 0.0
2017-Dec-09 15:28N 33°28' W 117°42'0 0.0
2017-Dec-09 14:52N 33°28' W 117°42'0 0.0
2017-Dec-09 14:22N 33°28' W 117°42'0 0.0
2017-Dec-09 13:58N 33°28' W 117°42'0 0.0
2017-Dec-09 13:28N 33°28' W 117°42'0 0.0
2017-Dec-09 12:52N 33°28' W 117°42'0 0.0
2017-Dec-09 12:28N 33°28' W 117°42'0 0.0
2017-Dec-09 11:58N 33°28' W 117°42'0 0.0
2017-Dec-09 11:22N 33°28' W 117°42'0 0.0
2017-Dec-09 10:52N 33°28' W 117°42'0 0.0
2017-Dec-09 09:28N 33°28' W 117°42'0 0.0
2017-Dec-09 08:58N 33°28' W 117°42'0 0.0
2017-Dec-09 08:22N 33°28' W 117°42'0 0.0
2017-Dec-09 07:46N 33°28' W 117°42'0 0.0
2017-Dec-09 07:28N 33°28' W 117°42'0 0.0
2017-Dec-09 05:28N 33°28' W 117°42'0 0.0
2017-Dec-09 04:58N 33°28' W 117°42'0 0.0
2017-Dec-08 22:22N 33°28' W 117°42'0 0.0
2017-Dec-08 21:58N 33°28' W 117°42'1 2.2
2017-Dec-08 21:30N 33°27' W 117°41'1 2.4
2017-Dec-08 21:00N 33°26' W 117°42'1 2.6
2017-Dec-08 20:30N 33°26' W 117°43'1 1.9
2017-Dec-08 19:57N 33°25' W 117°44'1 2.3
2017-Dec-08 19:29N 33°26' W 117°43'2 3.7
2017-Dec-08 19:00N 33°27' W 117°42'0 0.7
2017-Dec-08 18:27N 33°28' W 117°42'0 0.0
2017-Dec-08 17:21N 33°28' W 117°42'0 0.0
2017-Dec-08 16:39N 33°28' W 117°42'0 0.0
2017-Dec-08 16:27N 33°28' W 117°42'  
Track history (hours):
 
Tides and Currents Weather Stations Pressure Air Temp Water Temp Dewpoint Dewpoint Depression Visibility Wind Speed Wind Dir Waves Ship Positions

Cabernet Sky

Owner: Buckner, Charles A, Dana Point, CA. More information available from US FCC via Universal Licensing System and Coast Guard Vessel Documentation Center.

Last reported at 2017-Dec-11 17:54 UTC. Time now 2017-Dec-17 17:48 UTC.
Position N 33°30' W 117°48'.

Length 16 m.

Type: Sailing vessel. MMSI: 367646260.

Date/timePositionNaut miles runAvg speedWind from/ knotsBaromVisibWave heightAir tempDewpointWater temp
2017-Dec-11 17:54N 33°30' W 117°48'2 5.7
2017-Dec-11 17:30N 33°29' W 117°46'3 5.6
2017-Dec-11 16:58N 33°27' W 117°43'1 2.0
2017-Dec-11 16:30N 33°28' W 117°42'0 0.3
2017-Dec-11 15:59N 33°28' W 117°42'0 0.0
2017-Dec-11 15:29N 33°28' W 117°42'0 0.0
2017-Dec-11 14:59N 33°28' W 117°42'0 0.0
2017-Dec-11 14:17N 33°28' W 117°42'0 0.0
2017-Dec-11 13:59N 33°28' W 117°42'0 0.0
2017-Dec-11 13:29N 33°28' W 117°42'0 0.0
2017-Dec-11 12:59N 33°28' W 117°42'0 0.0
2017-Dec-11 12:17N 33°28' W 117°42'0 0.0
2017-Dec-11 11:59N 33°28' W 117°42'0 0.0
2017-Dec-11 05:23N 33°28' W 117°42'0 0.0
2017-Dec-11 04:59N 33°28' W 117°42'0 0.0
2017-Dec-11 04:29N 33°28' W 117°42'0 0.0
2017-Dec-11 03:59N 33°28' W 117°42'0 0.0
2017-Dec-11 03:29N 33°28' W 117°42'0 0.0
2017-Dec-11 02:59N 33°28' W 117°42'0 0.0
2017-Dec-11 02:29N 33°28' W 117°42'0 0.0
2017-Dec-11 01:47N 33°28' W 117°42'0 0.0
2017-Dec-11 01:29N 33°28' W 117°42'0 0.0
2017-Dec-11 00:59N 33°28' W 117°42'0 0.0
2017-Dec-11 00:29N 33°28' W 117°42'0 0.0
2017-Dec-10 23:35N 33°28' W 117°42'0 0.0
2017-Dec-10 23:17N 33°28' W 117°42'0 0.0
2017-Dec-10 22:59N 33°28' W 117°42'1 2.1
2017-Dec-10 22:30N 33°27' W 117°41'2 3.8
2017-Dec-10 22:00N 33°25' W 117°41'2 0.1
2017-Dec-09 23:54N 33°27' W 117°41'4 1.2
2017-Dec-09 20:33N 33°23' W 117°43'0 3.9
2017-Dec-09 20:30N 33°23' W 117°43'3 5.2
2017-Dec-09 20:00N 33°25' W 117°41'2 4.4
2017-Dec-09 19:28N 33°27' W 117°42'0 0.4
2017-Dec-09 18:58N 33°28' W 117°42'0 0.0
2017-Dec-09 18:28N 33°28' W 117°42'0 0.0
2017-Dec-09 17:58N 33°28' W 117°42'0 0.0
2017-Dec-09 17:28N 33°28' W 117°42'0 0.0
2017-Dec-09 16:58N 33°28' W 117°42'0 0.0
2017-Dec-09 16:28N 33°28' W 117°42'0 0.0
2017-Dec-09 15:58N 33°28' W 117°42'0 0.0
2017-Dec-09 15:28N 33°28' W 117°42'0 0.0
2017-Dec-09 14:52N 33°28' W 117°42'0 0.0
2017-Dec-09 14:22N 33°28' W 117°42'0 0.0
2017-Dec-09 13:58N 33°28' W 117°42'0 0.0
2017-Dec-09 13:28N 33°28' W 117°42'0 0.0
2017-Dec-09 12:52N 33°28' W 117°42'0 0.0
2017-Dec-09 12:28N 33°28' W 117°42'0 0.0
2017-Dec-09 11:58N 33°28' W 117°42'0 0.0
2017-Dec-09 11:22N 33°28' W 117°42'0 0.0
2017-Dec-09 10:52N 33°28' W 117°42'0 0.0
2017-Dec-09 09:28N 33°28' W 117°42'0 0.0
2017-Dec-09 08:58N 33°28' W 117°42'0 0.0
2017-Dec-09 08:22N 33°28' W 117°42'0 0.0
2017-Dec-09 07:46N 33°28' W 117°42'0 0.0
2017-Dec-09 07:28N 33°28' W 117°42'0 0.0
2017-Dec-09 05:28N 33°28' W 117°42'0 0.0
2017-Dec-09 04:58N 33°28' W 117°42'0 0.0
2017-Dec-08 22:22N 33°28' W 117°42'0 0.0
2017-Dec-08 21:58N 33°28' W 117°42'1 2.2
2017-Dec-08 21:30N 33°27' W 117°41'1 2.4
2017-Dec-08 21:00N 33°26' W 117°42'1 2.6
2017-Dec-08 20:30N 33°26' W 117°43'1 1.9
2017-Dec-08 19:57N 33°25' W 117°44'1 2.3
2017-Dec-08 19:29N 33°26' W 117°43'2 3.7
2017-Dec-08 19:00N 33°27' W 117°42'0 0.7
2017-Dec-08 18:27N 33°28' W 117°42'0 0.0
2017-Dec-08 17:21N 33°28' W 117°42'0 0.0
2017-Dec-08 16:39N 33°28' W 117°42'0 0.0
2017-Dec-08 16:27N 33°28' W 117°42'  

Dump ship's entire track history